GTN weather

Glentanner Airport
Glentanner Station, Canterbury Region, New Zealand

Public forecast

Using degrees Celsius for public forecast. Weather courtesy of forecast.io.

Closest aviation weather report (METAR) to Glentanner Airport

Closest report is Christchurch International Airport, 107.3 nm (198.7 km) ENE. Retrieved 2020/06/02 07:30 UTC (36 minutes ago):

NZCH 020730Z AUTO 05005KT 0100 R20/0500N -RA FG VV002 09/09 Q1012 NOSIG

Closest aviation forecast (TAF) to Glentanner Airport

Forecast is more than 12 hours old.

Closest forecast is Queenstown International Airport, 89.5 nm (165.8 km) SW. Retrieved 2020/06/01 18:01 UTC (14 hours ago):

TAF NZQN 011700Z 0118/0212 04005KT 9999 SCT040